Time;durP1;ratioP1;P1;durP2;ratioP2;P2;SDS_P1;SDS_P2;PMS_P1;PMS_P2;Temp;Humidity;BMP_temperature;BMP_pressure;BME280_temperature;BME280_humidity;BME280_pressure;Samples;Min_cycle;Max_cycle;Signal;HPM_P1;HPM_P2
2022/11/28 00:00:11;;;;;;;;;0.00;0.00;;;;;21.19;49.78;100937.34;5037908;28;45662;-77
2022/11/28 00:02:36;;;;;;;;;3.67;3.33;;;;;21.19;50.11;100924.13;5037986;28;45280;-76
2022/11/28 00:05:02;;;;;;;;;4.00;4.00;;;;;21.11;50.19;100898.53;5037521;28;46856;-76
2022/11/28 00:07:27;;;;;;;;;3.67;2.67;;;;;21.18;50.21;100903.97;5037861;28;45450;-76
2022/11/28 00:09:53;;;;;;;;;3.00;2.00;;;;;21.12;50.08;100896.72;5038024;28;45250;-77
2022/11/28 00:12:18;;;;;;;;;3.67;3.67;;;;;21.16;50.26;100906.78;5037761;28;45414;-77
2022/11/28 00:14:43;;;;;;;;;5.33;3.00;;;;;21.15;49.84;100920.19;5037548;28;46205;-77
2022/11/28 00:17:09;;;;;;;;;3.00;3.00;;;;;21.16;49.95;100921.81;5037865;28;45433;-78
2022/11/28 00:19:34;;;;;;;;;3.00;3.00;;;;;21.14;50.00;100911.41;5037066;28;45417;-77
2022/11/28 00:22:00;;;;;;;;;3.00;2.00;;;;;21.13;49.54;100901.03;5019843;28;45446;-76
2022/11/28 00:24:25;;;;;;;;;3.00;3.00;;;;;21.11;50.00;100909.13;5037680;28;45385;-76
2022/11/28 00:26:51;;;;;;;;;3.00;3.00;;;;;21.13;49.93;100908.97;5037666;28;45335;-76
2022/11/28 00:29:16;;;;;;;;;2.00;2.00;;;;;21.12;49.42;100913.41;5037696;28;45478;-77
2022/11/28 00:31:42;;;;;;;;;3.67;1.67;;;;;20.98;49.78;100882.34;5037577;28;45435;-76
2022/11/28 00:34:09;;;;;;;;;5.00;2.67;;;;;21.01;49.43;100882.00;5037119;28;45425;-77
2022/11/28 00:36:35;;;;;;;;;3.00;3.00;;;;;21.12;49.78;100897.53;5037177;28;45399;-77
2022/11/28 00:39:00;;;;;;;;;3.00;3.00;;;;;21.13;49.68;100903.66;5037335;28;45434;-76
2022/11/28 00:41:28;;;;;;;;;2.00;2.00;;;;;21.12;49.55;100900.19;5037444;28;45283;-77
2022/11/28 00:43:54;;;;;;;;;4.00;3.00;;;;;21.12;49.70;100902.00;5037213;28;47044;-76
2022/11/28 00:46:20;;;;;;;;;4.00;3.00;;;;;21.12;49.36;100902.00;5019352;28;45596;-77
2022/11/28 00:48:46;;;;;;;;;3.00;3.00;;;;;21.12;49.68;100902.00;5036995;28;45430;-76
2022/11/28 00:51:14;;;;;;;;;1.75;1.75;;;;;21.10;49.80;100899.53;5037040;28;45573;-76
2022/11/28 00:53:41;;;;;;;;;3.33;3.33;;;;;21.11;49.07;100892.41;5036982;28;45575;-76
2022/11/28 00:56:09;;;;;;;;;0.00;0.00;;;;;21.12;49.35;100888.78;5036877;28;45283;-76
2022/11/28 00:58:36;;;;;;;;;4.00;2.00;;;;;21.09;49.30;100884.66;5037057;28;45438;-77
2022/11/28 01:01:10;;;;;;;;;2.67;2.67;;;;;21.12;49.52;100892.25;5037044;28;45398;-76
2022/11/28 01:03:37;;;;;;;;;4.00;2.67;;;;;21.12;49.54;100899.34;5036377;28;46125;-77
2022/11/28 01:06:03;;;;;;;;;5.00;4.00;;;;;21.12;49.43;100896.72;5036897;28;45351;-76
2022/11/28 01:08:28;;;;;;;;;3.67;3.67;;;;;21.11;48.95;100887.13;5036960;28;45404;-76
2022/11/28 01:10:54;;;;;;;;;4.67;2.67;;;;;21.11;49.32;100887.94;5036754;28;45392;-76
2022/11/28 01:13:19;;;;;;;;;2.00;2.00;;;;;21.13;49.45;100887.78;5036719;28;45455;-76
2022/11/28 01:15:44;;;;;;;;;4.00;3.00;;;;;21.13;49.12;100898.38;5036914;28;45401;-76
2022/11/28 01:18:10;;;;;;;;;1.67;1.67;;;;;21.02;49.05;100887.19;5036573;28;45374;-76
2022/11/28 01:20:36;;;;;;;;;4.00;3.00;;;;;21.04;49.36;100903.69;5036773;28;45422;-76
2022/11/28 01:23:01;;;;;;;;;4.33;3.00;;;;;21.11;49.24;100918.88;5036720;28;45992;-75
2022/11/28 01:25:26;;;;;;;;;3.33;3.00;;;;;21.11;49.05;100918.88;5036663;28;45358;-76
2022/11/28 01:27:52;;;;;;;;;2.00;2.00;;;;;20.99;49.47;100899.88;5036791;28;45490;-76
2022/11/28 01:30:17;;;;;;;;;5.00;3.33;;;;;21.10;48.93;100910.13;5035799;28;45679;-76
2022/11/28 01:32:43;;;;;;;;;3.33;2.00;;;;;21.10;49.30;100919.88;5036111;28;46168;-77
2022/11/28 01:35:08;;;;;;;;;3.00;2.67;;;;;21.09;49.07;100911.09;5036515;28;46049;-76
2022/11/28 01:37:34;;;;;;;;;3.00;3.00;;;;;21.01;49.08;100885.50;5036556;28;45380;-76
2022/11/28 01:39:59;;;;;;;;;3.33;3.33;;;;;20.92;48.94;100870.66;5036481;28;45348;-77
2022/11/28 01:42:24;;;;;;;;;3.67;3.67;;;;;21.09;49.02;100899.69;5036485;28;45443;-77
2022/11/28 01:44:53;;;;;;;;;4.00;3.00;;;;;21.06;49.11;100914.94;5018526;28;45363;-77
2022/11/28 01:47:26;;;;;;;;;4.00;3.00;;;;;21.06;48.97;100919.38;5036102;28;45436;-76
2022/11/28 01:49:54;;;;;;;;;3.00;3.00;;;;;21.01;49.00;100900.53;5036278;28;45317;-77
2022/11/28 01:52:21;;;;;;;;;3.00;2.00;;;;;20.95;48.96;100892.28;5035989;28;46602;-76
2022/11/28 01:54:51;;;;;;;;;4.67;2.00;;;;;21.05;49.16;100913.25;5035980;28;45403;-76
2022/11/28 01:57:21;;;;;;;;;5.00;3.00;;;;;21.00;48.73;100905.00;5036223;28;45379;-76
2022/11/28 01:59:55;;;;;;;;;3.00;3.00;;;;;21.06;49.39;100917.56;5036032;28;45444;-76
2022/11/28 02:02:31;;;;;;;;;3.33;2.00;;;;;21.05;48.84;100913.25;5035505;28;46252;-76
2022/11/28 02:04:57;;;;;;;;;2.50;2.50;;;;;21.04;48.84;100909.00;5035900;28;45348;-76
2022/11/28 02:07:22;;;;;;;;;5.33;3.00;;;;;21.05;49.02;100894.75;5035967;28;45296;-76
2022/11/28 02:09:47;;;;;;;;;2.00;0.00;;;;;21.05;49.05;100913.25;5036159;28;45391;-76
2022/11/28 02:12:34;;;;;;;;;2.00;2.00;;;;;21.06;48.99;100903.50;5035758;28;45282;-76
2022/11/28 02:15:17;;;;;;;;;2.33;2.33;;;;;21.08;49.01;100884.84;5035907;28;45241;-76
2022/11/28 02:17:59;;;;;;;;;3.00;2.00;;;;;21.07;48.79;100889.31;5035891;28;45356;-76
2022/11/28 02:20:36;;;;;;;;;3.00;3.00;;;;;21.07;48.83;100881.38;5036009;28;45347;-76
2022/11/28 02:23:19;;;;;;;;;4.00;3.00;;;;;21.08;48.99;100879.53;5035640;28;45438;-76
2022/11/28 02:25:57;;;;;;;;;3.00;3.00;;;;;21.09;48.69;100881.19;5035600;28;45366;-76
2022/11/28 02:28:50;;;;;;;;;3.33;2.33;;;;;21.08;48.74;100880.34;5035869;28;45385;-76
2022/11/28 02:31:32;;;;;;;;;2.00;2.00;;;;;21.09;48.85;100875.88;5035190;28;45378;-77
2022/11/28 02:34:04;;;;;;;;;3.00;3.00;;;;;21.08;48.50;100875.06;5035443;28;47058;-76
2022/11/28 02:36:36;;;;;;;;;3.00;3.00;;;;;20.96;48.95;100854.25;5035388;28;45476;-76
2022/11/28 02:39:38;;;;;;;;;3.00;2.00;;;;;21.08;48.69;100871.59;5035687;28;45292;-75
2022/11/28 02:42:22;;;;;;;;;2.67;2.67;;;;;21.06;48.72;100877.88;5035283;28;45448;-77
2022/11/28 02:44:59;;;;;;;;;4.00;4.00;;;;;21.05;49.04;100873.59;5035091;28;46195;-77
2022/11/28 02:47:34;;;;;;;;;4.00;4.00;;;;;21.05;48.66;100872.78;5035253;28;45364;-76
2022/11/28 02:50:11;;;;;;;;;5.00;3.67;;;;;21.03;48.90;100870.28;5035382;28;45354;-76
2022/11/28 02:52:49;;;;;;;;;4.00;4.00;;;;;21.04;48.93;100864.00;5035254;28;45292;-76
2022/11/28 02:55:16;;;;;;;;;2.33;2.33;;;;;21.04;48.62;100861.38;5034943;28;47072;-76
2022/11/28 02:57:46;;;;;;;;;3.33;3.33;;;;;21.03;48.72;100867.66;5035063;28;45371;-76
2022/11/28 03:00:33;;;;;;;;;2.00;2.00;;;;;20.70;48.84;100812.22;5034826;28;45484;-76
2022/11/28 03:03:01;;;;;;;;;3.67;3.67;;;;;21.02;48.84;100866.00;5017317;28;45438;-76
2022/11/28 03:05:39;;;;;;;;;2.67;2.67;;;;;21.02;48.75;100866.00;5035072;28;47095;-77
2022/11/28 03:08:10;;;;;;;;;2.00;2.00;;;;;21.02;48.72;100876.59;5035177;28;45496;-76
2022/11/28 03:11:01;;;;;;;;;3.00;3.00;;;;;21.02;49.18;100873.13;5035177;28;45367;-76
2022/11/28 03:13:38;;;;;;;;;1.67;1.67;;;;;21.02;48.48;100868.66;5034842;28;45466;-76
2022/11/28 03:16:21;;;;;;;;;4.00;2.67;;;;;21.01;48.63;100869.66;5017076;28;46924;-76
2022/11/28 03:19:17;;;;;;;;;2.67;2.67;;;;;21.01;48.66;100871.44;5035178;28;45437;-76
2022/11/28 03:21:51;;;;;;;;;3.00;3.00;;;;;20.98;48.71;100862.03;5020764;28;45323;-77
2022/11/28 03:24:29;;;;;;;;;3.00;3.00;;;;;20.97;48.77;100863.03;5035020;28;45601;-76
2022/11/28 03:27:04;;;;;;;;;2.33;2.33;;;;;20.98;47.98;100869.94;5034756;28;45429;-76
2022/11/28 03:29:43;;;;;;;;;3.33;2.00;;;;;20.96;48.56;100864.84;5034568;28;45465;-76
2022/11/28 03:32:21;;;;;;;;;5.00;3.00;;;;;21.01;48.52;100871.44;5034829;28;45358;-76
2022/11/28 03:34:53;;;;;;;;;3.33;3.33;;;;;20.98;48.43;100864.66;5034982;28;45538;-76
2022/11/28 03:37:27;;;;;;;;;1.00;1.00;;;;;21.00;48.99;100878.53;5034587;28;46191;-77
2022/11/28 03:39:59;;;;;;;;;3.00;3.00;;;;;21.01;48.60;100876.72;5034737;28;45390;-76
2022/11/28 03:42:28;;;;;;;;;3.00;3.00;;;;;21.02;48.83;100860.72;5034498;28;45406;-76
2022/11/28 03:45:09;;;;;;;;;3.00;3.00;;;;;21.03;48.69;100848.31;5034769;28;45404;-76
2022/11/28 03:47:42;;;;;;;;;2.33;2.00;;;;;20.86;48.43;100827.22;5034564;28;45408;-76
2022/11/28 03:50:14;;;;;;;;;3.00;3.00;;;;;20.98;48.75;100847.97;5034519;28;45300;-77
2022/11/28 03:52:46;;;;;;;;;3.00;3.00;;;;;20.94;48.56;100840.41;5034897;28;45453;-76
2022/11/28 03:55:20;;;;;;;;;3.00;3.00;;;;;21.03;48.38;100851.78;5037962;28;45303;-76
2022/11/28 03:58:22;;;;;;;;;5.33;2.67;;;;;21.05;48.44;100851.63;5037326;28;47038;-76
2022/11/28 04:00:57;;;;;;;;;2.75;2.00;;;;;21.00;48.56;100857.38;5037784;28;45444;-77
2022/11/28 04:03:44;;;;;;;;;4.33;3.00;;;;;20.88;48.38;100835.78;5037928;28;45267;-76
2022/11/28 04:06:19;;;;;;;;;1.00;1.00;;;;;21.05;48.55;100856.91;5037919;28;45623;-76
2022/11/28 04:09:13;;;;;;;;;4.00;4.00;;;;;21.04;48.48;100857.91;5019814;28;46110;-76
2022/11/28 04:11:48;;;;;;;;;2.00;2.00;;;;;21.01;48.01;100867.00;5037423;28;45279;-76
2022/11/28 04:14:30;;;;;;;;;3.00;3.00;;;;;21.00;48.10;100853.94;5037805;28;45425;-76
2022/11/28 04:17:04;;;;;;;;;3.67;3.67;;;;;21.04;48.69;100869.31;5037754;28;45755;-76
2022/11/28 04:19:37;;;;;;;;;3.33;2.33;;;;;21.01;48.46;100869.66;5037521;28;46226;-76
2022/11/28 04:22:11;;;;;;;;;3.00;2.00;;;;;21.03;48.48;100875.59;5037575;28;45541;-77
2022/11/28 04:24:46;;;;;;;;;2.67;2.67;;;;;20.93;48.68;100867.84;5037622;28;45378;-77
2022/11/28 04:27:18;;;;;;;;;4.67;3.67;;;;;20.99;48.48;100876.91;5037293;28;45402;-76
2022/11/28 04:29:48;;;;;;;;;6.00;3.00;;;;;21.01;48.43;100885.50;5037476;28;46284;-76
2022/11/28 04:32:18;;;;;;;;;1.67;1.67;;;;;20.93;48.05;100874.94;5037232;28;45391;-76
2022/11/28 04:34:48;;;;;;;;;2.00;2.00;;;;;21.01;48.50;100892.59;5037498;28;45251;-76
2022/11/28 04:37:15;;;;;;;;;3.33;2.67;;;;;20.91;48.12;100885.69;5037454;28;45370;-77
2022/11/28 04:39:44;;;;;;;;;2.00;2.00;;;;;21.01;48.36;100901.38;5037309;28;45527;-75
2022/11/28 04:42:15;;;;;;;;;2.00;2.00;;;;;20.97;48.50;100886.84;5036951;28;45375;-76
2022/11/28 04:45:03;;;;;;;;;2.00;2.00;;;;;20.99;48.33;100895.41;5037417;28;45732;-75
2022/11/28 04:47:29;;;;;;;;;3.67;3.67;;;;;20.89;48.42;100887.69;5037353;28;45244;-77
2022/11/28 04:49:54;;;;;;;;;3.33;2.33;;;;;20.91;48.57;100893.63;5037053;28;47089;-76
2022/11/28 04:52:27;;;;;;;;;1.33;1.33;;;;;21.00;48.53;100912.13;5037107;28;45634;-76
2022/11/28 04:55:02;;;;;;;;;2.00;2.00;;;;;20.88;48.51;100893.97;5036774;28;45342;-76
2022/11/28 04:57:38;;;;;;;;;3.33;2.00;;;;;20.99;48.53;100902.53;5037023;28;45305;-76
2022/11/28 05:00:08;;;;;;;;;2.00;2.00;;;;;20.98;48.52;100904.34;5036673;28;45386;-76
2022/11/28 05:02:35;;;;;;;;;1.00;1.00;;;;;20.98;48.36;100906.97;5036904;28;45371;-76
2022/11/28 05:05:05;;;;;;;;;2.67;2.00;;;;;20.89;48.16;100903.56;5035926;28;45335;-77
2022/11/28 05:07:30;;;;;;;;;2.00;2.00;;;;;20.99;48.02;100906.00;5036890;28;45307;-76
2022/11/28 05:09:56;;;;;;;;;2.33;1.00;;;;;20.88;48.11;100883.38;5036375;28;46173;-76
2022/11/28 05:12:21;;;;;;;;;4.00;2.33;;;;;20.83;48.38;100880.44;5036803;28;45376;-75
2022/11/28 05:14:47;;;;;;;;;2.00;2.00;;;;;20.98;48.09;100901.69;5036478;28;49194;-76
2022/11/28 05:17:12;;;;;;;;;3.00;3.00;;;;;20.89;48.24;100886.88;5036918;28;45413;-76
2022/11/28 05:19:37;;;;;;;;;2.00;2.00;;;;;20.85;48.42;100881.91;5036615;28;46882;-76
2022/11/28 05:22:03;;;;;;;;;3.33;3.33;;;;;21.01;48.15;100919.91;5036747;28;45767;-76
2022/11/28 05:24:28;;;;;;;;;2.00;2.00;;;;;21.02;48.38;100912.81;5036551;28;45378;-76
2022/11/28 05:26:53;;;;;;;;;4.33;2.00;;;;;21.02;48.27;100910.16;5036583;28;45391;-76
2022/11/28 05:29:19;;;;;;;;;1.33;1.33;;;;;20.93;48.50;100902.22;5018628;28;46980;-76
2022/11/28 05:31:44;;;;;;;;;2.00;2.00;;;;;21.02;47.95;100918.91;5036480;28;45455;-76
2022/11/28 05:34:09;;;;;;;;;2.00;2.00;;;;;21.01;48.54;100917.25;5036831;28;45422;-76
2022/11/28 05:36:35;;;;;;;;;4.00;2.67;;;;;20.97;47.79;100902.72;5036634;28;45280;-76
2022/11/28 05:39:00;;;;;;;;;5.33;4.00;;;;;21.02;47.96;100913.63;5035817;28;47022;-76
2022/11/28 05:41:28;;;;;;;;;1.67;1.67;;;;;21.03;48.48;100915.25;5036285;28;45359;-76
2022/11/28 05:43:55;;;;;;;;;4.33;3.33;;;;;21.02;48.28;100918.91;5036495;28;45458;-76
2022/11/28 05:46:21;;;;;;;;;2.00;2.00;;;;;21.03;47.98;100914.44;5036283;28;45426;-76
2022/11/28 05:48:46;;;;;;;;;1.33;1.33;;;;;21.03;48.15;100914.44;5036300;28;45419;-76
2022/11/28 05:51:12;;;;;;;;;3.00;3.00;;;;;21.03;47.85;100917.06;5035943;28;45373;-76
2022/11/28 05:53:37;;;;;;;;;1.00;1.00;;;;;20.99;47.88;100913.94;5035868;28;45442;-76
2022/11/28 05:56:14;;;;;;;;;1.33;1.33;;;;;20.92;47.91;100905.84;5036157;28;45423;-76
2022/11/28 05:58:40;;;;;;;;;5.00;2.00;;;;;21.00;48.33;100925.34;5035869;28;46144;-76
2022/11/28 06:01:26;;;;;;;;;3.00;3.00;;;;;20.96;48.19;100920.38;5036019;28;45386;-76
2022/11/28 06:03:57;;;;;;;;;2.00;2.00;;;;;21.00;48.20;100928.78;5036164;28;45253;-76
2022/11/28 06:06:23;;;;;;;;;1.33;1.33;;;;;21.00;48.06;100931.44;5036106;28;45581;-76
2022/11/28 06:08:53;;;;;;;;;2.00;2.00;;;;;21.01;48.20;100932.28;5035488;28;46986;-76
2022/11/28 06:11:21;;;;;;;;;3.33;2.00;;;;;21.00;47.96;100928.00;5035646;28;45202;-75
2022/11/28 06:13:47;;;;;;;;;2.67;2.67;;;;;20.99;47.88;100931.63;5036296;28;45350;-76
2022/11/28 06:16:16;;;;;;;;;3.00;3.00;;;;;20.99;48.20;100932.44;5035513;28;45562;-76
2022/11/28 06:18:42;;;;;;;;;2.67;2.67;;;;;20.93;48.22;100918.09;5017726;28;47544;-76
2022/11/28 06:21:09;;;;;;;;;1.00;1.00;;;;;21.00;48.02;100920.84;5035719;28;45893;-76
2022/11/28 06:23:35;;;;;;;;;2.00;1.33;;;;;21.00;48.08;100917.41;5035456;28;45376;-78
2022/11/28 06:26:06;;;;;;;;;0.67;0.00;;;;;21.00;48.17;100920.06;5035759;28;45426;-75
2022/11/28 06:28:32;;;;;;;;;1.00;1.00;;;;;20.99;48.27;100921.88;5035678;28;45382;-75
2022/11/28 06:30:57;;;;;;;;;4.00;1.00;;;;;20.99;48.06;100923.69;5035265;28;45389;-75
2022/11/28 06:33:23;;;;;;;;;2.00;2.00;;;;;20.99;48.41;100913.09;5035561;28;45323;-76
2022/11/28 06:35:48;;;;;;;;;2.00;2.00;;;;;20.98;48.43;100916.72;5036275;28;45496;-80
2022/11/28 06:38:13;;;;;;;;;2.00;2.00;;;;;20.97;48.14;100905.34;5034628;28;46155;-76
2022/11/28 06:40:38;;;;;;;;;2.00;2.00;;;;;20.90;48.68;100897.25;5035426;28;45303;-75
2022/11/28 06:43:05;;;;;;;;;4.00;2.00;;;;;20.98;47.95;100912.28;5035263;28;45244;-73
2022/11/28 06:45:32;;;;;;;;;4.33;2.00;;;;;20.93;48.82;100906.66;5035491;28;45673;-76
2022/11/28 06:47:57;;;;;;;;;1.33;1.33;;;;;21.00;48.20;100907.63;5035284;28;45379;-74
2022/11/28 06:50:23;;;;;;;;;1.00;1.00;;;;;20.99;48.81;100906.00;5035258;28;45267;-73
2022/11/28 06:52:48;;;;;;;;;1.00;1.00;;;;;21.01;48.41;100905.81;5035251;28;46197;-74
2022/11/28 06:55:13;;;;;;;;;2.00;2.00;;;;;21.01;49.13;100903.16;5035428;28;45426;-74
2022/11/28 06:57:39;;;;;;;;;1.67;1.67;;;;;21.01;48.68;100917.25;5035005;28;45988;-74
2022/11/28 07:00:05;;;;;;;;;3.00;2.00;;;;;21.02;48.80;100913.63;5035069;28;45523;-74
2022/11/28 07:02:31;;;;;;;;;2.00;2.00;;;;;21.03;48.59;100909.13;5035317;28;45307;-74
2022/11/28 07:04:56;;;;;;;;;4.67;2.67;;;;;21.03;48.49;100912.63;5035211;28;45379;-74
2022/11/28 07:07:21;;;;;;;;;4.00;3.00;;;;;21.03;48.48;100909.13;5034727;28;46041;-74
2022/11/28 07:09:47;;;;;;;;;1.33;1.33;;;;;21.04;48.88;100913.44;5035130;28;45329;-74
2022/11/28 07:12:13;;;;;;;;;2.67;2.00;;;;;21.05;48.87;100915.09;5035267;28;45446;-74
2022/11/28 07:14:38;;;;;;;;;3.00;2.67;;;;;21.03;48.58;100915.25;5035138;28;45498;-74
2022/11/28 07:17:04;;;;;;;;;2.00;2.00;;;;;21.06;48.63;100911.44;5034772;28;52098;-74
2022/11/28 07:19:29;;;;;;;;;5.33;3.00;;;;;20.98;48.46;100896.41;5035046;28;45381;-74
2022/11/28 07:21:54;;;;;;;;;2.00;2.00;;;;;21.06;48.75;100916.75;5034895;28;45541;-74
2022/11/28 07:24:20;;;;;;;;;5.00;3.00;;;;;21.06;49.02;100920.22;5035083;28;45490;-75
2022/11/28 07:26:45;;;;;;;;;2.00;2.00;;;;;20.98;48.86;100893.75;5034761;28;47141;-74
2022/11/28 07:29:16;;;;;;;;;2.00;1.00;;;;;21.03;48.56;100909.13;5037195;28;45622;-74
2022/11/28 07:31:41;;;;;;;;;0.00;0.00;;;;;21.07;48.70;100915.75;5038765;28;45406;-74
2022/11/28 07:34:08;;;;;;;;;1.00;1.00;;;;;21.08;48.58;100922.69;5038454;28;45259;-74
2022/11/28 07:36:33;;;;;;;;;1.67;1.67;;;;;21.08;48.75;100925.31;5037933;28;45201;-74
2022/11/28 07:39:00;;;;;;;;;1.00;1.00;;;;;21.09;48.52;100931.44;5038043;28;45371;-75
2022/11/28 07:41:26;;;;;;;;;2.00;2.00;;;;;21.07;48.39;100923.69;5038305;28;45534;-74
2022/11/28 07:43:54;;;;;;;;;4.67;2.67;;;;;21.09;48.52;100926.16;5038260;28;45311;-74
2022/11/28 07:46:20;;;;;;;;;3.00;3.00;;;;;21.09;48.67;100926.16;5037949;28;47328;-74
2022/11/28 07:48:47;;;;;;;;;3.33;2.00;;;;;21.10;48.65;100917.22;5037708;28;45312;-75
2022/11/28 07:51:15;;;;;;;;;2.00;2.00;;;;;21.10;48.34;100919.88;5038057;28;45370;-74
2022/11/28 07:53:41;;;;;;;;;1.33;1.33;;;;;21.04;48.37;100918.72;5037937;28;45382;-74
2022/11/28 07:56:09;;;;;;;;;1.33;1.33;;;;;21.09;48.52;100937.56;5037776;28;45400;-74
2022/11/28 07:58:35;;;;;;;;;2.33;2.33;;;;;21.09;48.38;100934.09;5037892;28;45457;-74
2022/11/28 08:01:12;;;;;;;;;1.00;1.00;;;;;21.09;48.54;100934.09;5037981;28;45430;-74
2022/11/28 08:03:38;;;;;;;;;3.33;2.00;;;;;21.09;48.25;100939.38;5037551;28;45392;-74
2022/11/28 08:06:04;;;;;;;;;2.00;2.00;;;;;21.05;48.60;100945.00;5037835;28;45538;-74
2022/11/28 08:08:31;;;;;;;;;2.00;2.00;;;;;20.99;48.34;100943.03;5037768;28;45451;-73
2022/11/28 08:10:59;;;;;;;;;3.67;2.00;;;;;21.05;48.33;100947.66;5037697;28;45382;-75
2022/11/28 08:13:26;;;;;;;;;2.00;2.00;;;;;21.05;48.44;100946.84;5037865;28;45351;-74
2022/11/28 08:15:52;;;;;;;;;2.00;2.00;;;;;21.05;48.50;100949.50;5037493;28;47408;-75
2022/11/28 08:18:17;;;;;;;;;2.33;2.33;;;;;20.97;48.54;100934.44;5037185;28;45361;-75
2022/11/28 08:20:42;;;;;;;;;2.00;2.00;;;;;21.05;48.49;100955.59;5019952;28;45665;-74
2022/11/28 08:23:08;;;;;;;;;1.00;1.00;;;;;21.00;48.42;100939.38;5037808;28;45339;-74
2022/11/28 08:25:33;;;;;;;;;2.00;2.00;;;;;21.04;48.85;100947.84;5037455;28;46003;-74
2022/11/28 08:27:58;;;;;;;;;3.00;3.00;;;;;20.97;48.57;100926.50;5037519;28;45328;-74
2022/11/28 08:30:24;;;;;;;;;2.00;2.00;;;;;21.00;48.72;100926.16;5037519;28;45312;-75
2022/11/28 08:32:50;;;;;;;;;2.33;2.33;;;;;21.04;48.68;100938.09;5037284;28;45166;-75
2022/11/28 08:35:15;;;;;;;;;2.00;2.00;;;;;21.04;48.48;100937.25;5037422;28;45421;-74
2022/11/28 08:37:41;;;;;;;;;3.67;2.00;;;;;21.04;48.73;100937.25;5019496;28;45360;-74
2022/11/28 08:40:07;;;;;;;;;3.00;2.00;;;;;21.04;48.48;100938.09;5037116;28;45486;-74
2022/11/28 08:42:32;;;;;;;;;1.00;1.00;;;;;21.03;48.69;100933.78;5037717;28;45415;-74
2022/11/28 08:44:57;;;;;;;;;3.00;2.00;;;;;21.03;48.80;100940.88;5037245;28;45807;-74
2022/11/28 08:47:23;;;;;;;;;3.00;3.00;;;;;21.03;48.67;100930.31;5036673;28;50337;-75
2022/11/28 08:49:48;;;;;;;;;1.00;1.00;;;;;21.04;48.93;100930.16;5037407;28;45332;-74
2022/11/28 08:52:13;;;;;;;;;4.00;2.33;;;;;20.98;48.69;100924.66;5037367;28;45390;-74
2022/11/28 08:54:40;;;;;;;;;2.00;2.00;;;;;21.00;48.68;100941.22;5036937;28;47347;-74
2022/11/28 08:57:05;;;;;;;;;3.67;2.00;;;;;21.03;48.66;100941.72;5036965;28;45343;-74
2022/11/28 08:59:30;;;;;;;;;1.00;1.00;;;;;20.96;48.69;100930.13;5037052;28;45478;-74
2022/11/28 09:01:56;;;;;;;;;2.00;2.00;;;;;21.05;48.90;100936.28;5036780;28;45344;-74
2022/11/28 09:04:22;;;;;;;;;2.33;2.00;;;;;21.05;48.37;100946.84;5036975;28;45418;-74
2022/11/28 09:06:47;;;;;;;;;2.67;2.67;;;;;20.93;48.93;100919.91;5036936;28;45385;-74
2022/11/28 09:09:13;;;;;;;;;2.33;2.00;;;;;21.01;48.40;100927.84;5036931;28;45350;-74
2022/11/28 09:11:39;;;;;;;;;2.00;2.00;;;;;21.02;48.56;100933.97;5036977;28;45408;-74
2022/11/28 09:14:05;;;;;;;;;5.33;2.33;;;;;21.00;48.49;100933.28;5036896;28;46003;-75
2022/11/28 09:16:30;;;;;;;;;5.00;1.67;;;;;21.03;48.38;100932.94;5036380;28;46055;-75
2022/11/28 09:18:58;;;;;;;;;2.33;1.00;;;;;21.10;48.49;100946.34;5036948;28;45744;-75
2022/11/28 09:21:24;;;;;;;;;2.67;2.33;;;;;20.99;48.70;100927.16;5036759;28;45737;-75
2022/11/28 09:23:54;;;;;;;;;3.00;2.00;;;;;21.12;48.54;100949.63;5036730;28;46912;-74
2022/11/28 09:26:21;;;;;;;;;1.67;1.67;;;;;21.12;48.70;100950.44;5036760;28;45279;-75
2022/11/28 09:28:47;;;;;;;;;3.00;3.00;;;;;21.11;48.34;100950.59;5036543;28;45547;-74
2022/11/28 09:31:14;;;;;;;;;1.00;1.00;;;;;21.11;48.28;100951.44;5035899;28;49277;-75
2022/11/28 09:33:39;;;;;;;;;1.00;1.00;;;;;21.10;48.28;100943.69;5036571;28;47192;-75
2022/11/28 09:36:10;;;;;;;;;2.67;2.67;;;;;21.09;48.62;100945.50;5036421;28;45288;-74
2022/11/28 09:38:36;;;;;;;;;1.33;1.33;;;;;21.12;48.95;100954.91;5036517;28;45370;-75
2022/11/28 09:41:03;;;;;;;;;7.00;2.67;;;;;21.11;48.74;100951.44;5036428;28;45330;-74
2022/11/28 09:43:36;;;;;;;;;3.67;2.00;;;;;21.12;48.36;100954.91;5035410;28;46406;-74
2022/11/28 09:46:07;;;;;;;;;3.67;2.00;;;;;21.11;48.38;100953.25;5035812;28;45354;-74
2022/11/28 09:48:37;;;;;;;;;2.00;2.00;;;;;21.13;48.71;100953.94;5036443;28;45363;-74
2022/11/28 09:51:18;;;;;;;;;1.33;1.33;;;;;21.03;48.45;100946.16;5035579;28;45471;-74
2022/11/28 09:54:19;;;;;;;;;1.33;1.33;;;;;21.12;48.36;100971.63;5036042;28;47382;-74
2022/11/28 09:56:48;;;;;;;;;2.33;1.67;;;;;21.12;48.28;100976.09;4935430;28;45357;-75
2022/11/28 09:59:25;;;;;;;;;2.00;2.00;;;;;21.12;48.80;100968.16;4935588;28;45498;-75
2022/11/28 10:02:09;;;;;;;;;2.00;2.00;;;;;21.13;48.57;100967.16;4935686;28;45361;-75
2022/11/28 10:04:55;;;;;;;;;2.00;2.00;;;;;21.11;48.42;100967.31;4935297;28;45519;-75
2022/11/28 10:07:42;;;;;;;;;2.00;2.00;;;;;21.09;48.61;100966.66;4935353;28;45528;-74
2022/11/28 10:10:15;;;;;;;;;3.33;2.00;;;;;21.11;48.67;100969.97;4935663;28;45286;-75
2022/11/28 10:13:11;;;;;;;;;2.00;2.00;;;;;21.11;48.66;100983.19;4935425;28;45538;-75
2022/11/28 10:15:40;;;;;;;;;1.67;1.00;;;;;21.13;48.46;100983.03;4934730;28;47223;-74
2022/11/28 10:18:31;;;;;;;;;3.67;2.33;;;;;21.09;48.68;100971.13;4935376;28;45423;-75
2022/11/28 10:21:03;;;;;;;;;2.00;2.00;;;;;21.14;48.34;100976.72;4935429;28;45493;-75
2022/11/28 10:23:37;;;;;;;;;2.00;2.00;;;;;21.13;48.50;100970.59;4935124;28;45352;-75
2022/11/28 10:26:21;;;;;;;;;1.33;1.33;;;;;21.13;48.47;100964.50;4935244;28;46108;-75
2022/11/28 10:28:50;;;;;;;;;4.00;1.00;;;;;21.05;48.54;100958.22;4934751;28;45394;-74
2022/11/28 10:31:34;;;;;;;;;2.00;2.00;;;;;21.12;48.50;100974.28;4935412;28;45728;-75
2022/11/28 10:34:17;;;;;;;;;2.00;2.00;;;;;21.02;48.55;100958.59;4989786;28;45508;-75
2022/11/28 10:37:20;;;;;;;;;2.00;2.00;;;;;21.12;48.58;100971.63;5035537;28;47303;-75
2022/11/28 10:39:47;;;;;;;;;1.00;1.00;;;;;21.13;48.65;100975.09;5035458;28;45329;-75
2022/11/28 10:42:34;;;;;;;;;4.67;2.33;;;;;21.13;48.39;100969.81;5017676;28;45485;-74
2022/11/28 10:45:08;;;;;;;;;2.00;2.00;;;;;21.13;48.17;100972.44;5035222;28;45277;-74
2022/11/28 10:47:46;;;;;;;;;1.67;1.67;;;;;21.13;48.44;100965.31;5035353;28;47167;-74
2022/11/28 10:50:23;;;;;;;;;1.33;1.00;;;;;21.12;48.58;100963.69;5035248;28;45445;-75
2022/11/28 10:53:06;;;;;;;;;1.33;1.33;;;;;21.03;48.27;100936.41;5035447;28;45441;-74
2022/11/28 10:55:56;;;;;;;;;3.00;1.00;;;;;21.09;48.49;100944.66;5035413;28;45295;-73
2022/11/28 10:58:28;;;;;;;;;1.67;1.67;;;;;21.14;48.16;100945.81;5014656;28;45609;-74
2022/11/28 11:00:57;;;;;;;;;3.67;1.00;;;;;21.10;48.39;100938.41;5015295;28;45392;-74
2022/11/28 11:03:31;;;;;;;;;5.00;1.33;;;;;21.14;48.56;100945.81;5018011;28;45352;-74
2022/11/28 11:05:57;;;;;;;;;2.00;2.00;;;;;21.09;48.51;100939.38;5018970;28;45510;-74
2022/11/28 11:08:25;;;;;;;;;3.33;2.33;;;;;21.14;48.58;100939.69;5018823;28;45566;-75
2022/11/28 11:10:50;;;;;;;;;3.00;2.00;;;;;21.14;48.10;100939.69;5018861;28;45421;-75
2022/11/28 11:13:22;;;;;;;;;4.00;1.33;;;;;21.03;48.69;100920.56;5018410;28;45377;-75
2022/11/28 11:15:56;;;;;;;;;4.33;2.00;;;;;21.09;48.55;100928.78;5018852;28;45371;-75
2022/11/28 11:18:23;;;;;;;;;1.00;1.00;;;;;21.14;48.39;100931.75;5018575;28;46305;-74
2022/11/28 11:20:49;;;;;;;;;3.00;2.00;;;;;21.13;48.52;100930.91;5018551;28;45409;-75
2022/11/28 11:23:21;;;;;;;;;3.00;3.00;;;;;21.14;48.32;100923.81;5018493;28;45330;-75
2022/11/28 11:25:51;;;;;;;;;1.00;1.00;;;;;21.12;48.46;100921.34;5018616;28;45445;-75
2022/11/28 11:28:32;;;;;;;;;4.00;1.67;;;;;21.13;48.25;100916.88;5017988;28;46419;-75
2022/11/28 11:31:04;;;;;;;;;2.00;2.00;;;;;21.01;48.46;100906.69;5017969;28;45383;-75
2022/11/28 11:33:33;;;;;;;;;2.33;1.00;;;;;21.10;48.34;100911.94;5018474;28;45439;-75
2022/11/28 11:36:01;;;;;;;;;3.00;3.00;;;;;21.01;48.36;100901.38;5018572;28;45343;-74
2022/11/28 11:38:33;;;;;;;;;3.33;1.67;;;;;21.11;48.26;100919.69;5018361;28;46153;-74